Time;durP1;ratioP1;P1;durP2;ratioP2;P2;SDS_P1;SDS_P2;PMS_P1;PMS_P2;Temp;Humidity;BMP_temperature;BMP_pressure;BME280_temperature;BME280_humidity;BME280_pressure;Samples;Min_cycle;Max_cycle;Signal;HPM_P1;HPM_P2
2023/03/02 00:00:40;;;;;;;;;;;;;;;5.77;73.40;102121.06;4992665;28;1388;-84
2023/03/02 00:03:07;;;;;;;;;;;;;;;5.78;73.25;102119.22;4993593;28;902;-84
2023/03/02 00:05:33;;;;;;;;;;;;;;;5.76;72.99;102121.19;4991653;28;2235;-84
2023/03/02 00:08:00;;;;;;;;;;;;;;;5.74;73.35;102120.53;5008650;28;1341;-84
2023/03/02 00:10:26;;;;;;;;;;;;;;;5.70;73.13;102119.97;4995252;28;1000;-84
2023/03/02 00:12:53;;;;;;;;;;;;;;;5.70;73.04;102123.47;5003851;28;1523;-84
2023/03/02 00:15:19;;;;;;;;;;;;;;;5.72;73.05;102123.34;4987941;28;1342;-84
2023/03/02 00:17:46;;;;;;;;;;;;;;;5.70;73.12;102122.63;4984786;28;1401;-84
2023/03/02 00:20:13;;;;;;;;;;;;;;;5.68;73.03;102116.63;4986395;28;998;-84
2023/03/02 00:22:39;;;;;;;;;;;;;;;5.66;73.22;102122.09;4987430;28;1248;-83
2023/03/02 00:25:06;;;;;;;;;;;;;;;5.66;73.27;102119.44;4990831;28;1969;-84
2023/03/02 00:27:32;;;;;;;;;;;;;;;5.64;73.24;102117.88;4991419;28;1949;-84
2023/03/02 00:29:59;;;;;;;;;;;;;;;5.63;73.21;102113.53;4990514;28;1733;-84
2023/03/02 00:32:26;;;;;;;;;;;;;;;5.61;73.08;102111.00;5006858;28;1510;-85
2023/03/02 00:34:52;;;;;;;;;;;;;;;5.60;73.08;102114.69;4988320;28;1213;-84
2023/03/02 00:37:19;;;;;;;;;;;;;;;5.59;73.13;102110.34;4991385;28;1007;-83
2023/03/02 00:39:45;;;;;;;;;;;;;;;5.58;73.26;102111.31;4991066;28;2482;-84
2023/03/02 00:42:12;;;;;;;;;;;;;;;5.57;73.08;102119.50;5009051;28;1300;-83
2023/03/02 00:44:38;;;;;;;;;;;;;;;5.57;72.80;102109.63;5002367;28;1914;-83
2023/03/02 00:47:05;;;;;;;;;;;;;;;5.55;73.19;102110.78;4988310;28;1421;-84
2023/03/02 00:49:32;;;;;;;;;;;;;;;5.52;73.16;102109.22;4988083;28;1991;-84
2023/03/02 00:51:58;;;;;;;;;;;;;;;5.51;73.00;102109.41;4981001;28;1495;-84
2023/03/02 00:54:25;;;;;;;;;;;;;;;5.50;73.01;102108.56;4983966;28;2451;-84
2023/03/02 00:56:51;;;;;;;;;;;;;;;5.49;73.09;102103.34;4990223;28;2976;-84
2023/03/02 00:59:26;;;;;;;;;;;;;;;5.49;73.25;102103.34;4989909;28;2723;-84
2023/03/02 01:01:56;;;;;;;;;;;;;;;5.50;72.83;102107.69;4983325;28;2469;-83
2023/03/02 01:04:23;;;;;;;;;;;;;;;5.46;73.19;102110.66;4989045;28;2212;-84
2023/03/02 01:06:50;;;;;;;;;;;;;;;5.45;72.94;102103.66;4990666;28;1277;-84
2023/03/02 01:09:16;;;;;;;;;;;;;;;5.43;73.29;102105.63;4987818;28;893;-83
2023/03/02 01:11:43;;;;;;;;;;;;;;;5.41;73.08;102104.94;4995886;28;872;-83
2023/03/02 01:14:09;;;;;;;;;;;;;;;5.40;73.02;102108.59;4984972;28;1229;-83
2023/03/02 01:16:36;;;;;;;;;;;;;;;5.40;73.15;102108.59;4985294;28;1370;-83
2023/03/02 01:19:02;;;;;;;;;;;;;;;5.39;72.97;102098.91;4988581;28;1347;-84
2023/03/02 01:21:29;;;;;;;;;;;;;;;5.36;73.22;102099.19;4984496;28;1188;-84
2023/03/02 01:23:56;;;;;;;;;;;;;;;5.36;73.12;102095.69;4989723;28;1895;-84
2023/03/02 01:26:22;;;;;;;;;;;;;;;5.35;73.13;102100.16;4992728;28;991;-84
2023/03/02 01:28:54;;;;;;;;;;;;;;;5.35;72.99;102094.81;4985346;28;1542;-83
2023/03/02 01:31:20;;;;;;;;;;;;;;;5.34;72.91;102097.66;4982539;28;1886;-83
2023/03/02 01:33:47;;;;;;;;;;;;;;;5.31;72.92;102096.13;4984239;28;1327;-84
2023/03/02 01:36:13;;;;;;;;;;;;;;;5.32;72.91;102095.13;4982502;28;2171;-83
2023/03/02 01:38:40;;;;;;;;;;;;;;;5.32;72.85;102099.63;4989772;28;1208;-84
2023/03/02 01:41:07;;;;;;;;;;;;;;;5.29;72.95;102099.91;4989645;28;1299;-84
2023/03/02 01:43:33;;;;;;;;;;;;;;;5.30;72.88;102096.28;4985233;28;1733;-83
2023/03/02 01:46:00;;;;;;;;;;;;;;;5.27;72.88;102094.75;4982172;28;2629;-85
2023/03/02 01:48:27;;;;;;;;;;;;;;;5.28;72.99;102095.56;4982039;28;2141;-83
2023/03/02 01:50:53;;;;;;;;;;;;;;;5.23;72.96;102082.66;4982898;28;2260;-84
2023/03/02 01:53:20;;;;;;;;;;;;;;;5.27;72.97;102088.56;4983374;28;2337;-84
2023/03/02 01:55:46;;;;;;;;;;;;;;;5.22;73.06;102084.47;4980980;28;2345;-84
2023/03/02 01:58:13;;;;;;;;;;;;;;;5.22;72.95;102086.31;4981445;28;2009;-84
2023/03/02 02:00:39;;;;;;;;;;;;;;;5.23;72.66;102085.31;4983011;28;2449;-84
2023/03/02 02:03:08;;;;;;;;;;;;;;;5.18;73.09;102085.78;4983074;28;2155;-84
2023/03/02 02:05:35;;;;;;;;;;;;;;;5.15;73.16;102096.75;4977634;28;5614;-83
2023/03/02 02:08:01;;;;;;;;;;;;;;;5.16;72.95;102084.22;4980145;28;2679;-83
2023/03/02 02:10:28;;;;;;;;;;;;;;;5.16;73.00;102085.06;4981250;28;2292;-83
2023/03/02 02:12:54;;;;;;;;;;;;;;;5.14;72.92;102086.19;4982233;28;2141;-84
2023/03/02 02:15:21;;;;;;;;;;;;;;;5.15;72.89;102078.06;4981393;28;2120;-83
2023/03/02 02:17:48;;;;;;;;;;;;;;;5.15;72.87;102074.56;4984140;28;1193;-83
2023/03/02 02:20:15;;;;;;;;;;;;;;;5.11;72.90;102075.81;4983992;28;2268;-84
2023/03/02 02:22:41;;;;;;;;;;;;;;;5.08;73.04;102081.44;4982043;28;3689;-84
2023/03/02 02:25:08;;;;;;;;;;;;;;;5.09;72.72;102075.97;4981373;28;2270;-84
2023/03/02 02:27:34;;;;;;;;;;;;;;;5.06;72.98;102080.75;4981311;28;2253;-85
2023/03/02 02:30:01;;;;;;;;;;;;;;;5.05;72.88;102069.22;4982614;28;2603;-83
2023/03/02 02:32:29;;;;;;;;;;;;;;;5.04;72.91;102070.22;4982643;28;2138;-84
2023/03/02 02:34:55;;;;;;;;;;;;;;;5.05;72.88;102068.38;4980622;28;2269;-83
2023/03/02 02:37:22;;;;;;;;;;;;;;;5.02;72.70;102066.84;4980090;28;2313;-83
2023/03/02 02:39:48;;;;;;;;;;;;;;;4.99;72.87;102067.16;4984375;28;2360;-84
2023/03/02 02:42:15;;;;;;;;;;;;;;;4.99;73.01;102059.13;4979271;28;2588;-83
2023/03/02 02:44:41;;;;;;;;;;;;;;;4.96;72.77;102054.09;4983604;28;2201;-83
2023/03/02 02:47:08;;;;;;;;;;;;;;;4.99;72.88;102053.78;4982154;28;2264;-84
2023/03/02 02:49:35;;;;;;;;;;;;;;;4.96;72.79;102048.75;4980252;28;2102;-83
2023/03/02 02:52:01;;;;;;;;;;;;;;;4.94;72.84;102046.25;4979563;28;2229;-84
2023/03/02 02:54:28;;;;;;;;;;;;;;;4.92;73.00;102042.03;4983585;28;2238;-83
2023/03/02 02:56:54;;;;;;;;;;;;;;;4.92;72.83;102048.22;4978651;28;2338;-84
2023/03/02 02:59:21;;;;;;;;;;;;;;;4.92;72.78;102032.19;4981171;28;2197;-84
2023/03/02 03:01:48;;;;;;;;;;;;;;;4.96;72.54;102040.72;4981690;28;2281;-85
2023/03/02 03:04:14;;;;;;;;;;;;;;;4.91;72.74;102034.97;4982389;28;2390;-83
2023/03/02 03:06:41;;;;;;;;;;;;;;;4.87;72.86;102042.44;4979697;28;2443;-84
2023/03/02 03:09:08;;;;;;;;;;;;;;;4.84;72.82;102029.41;4978092;28;2705;-83
2023/03/02 03:11:35;;;;;;;;;;;;;;;4.88;72.70;102032.59;4983477;28;2549;-83
2023/03/02 03:14:01;;;;;;;;;;;;;;;4.85;72.77;102022.22;4983278;28;2767;-85
2023/03/02 03:16:28;;;;;;;;;;;;;;;4.83;72.91;102024.22;4987585;28;2210;-83
2023/03/02 03:18:54;;;;;;;;;;;;;;;4.82;72.75;102030.53;4980545;28;2381;-84
2023/03/02 03:21:21;;;;;;;;;;;;;;;4.81;72.69;102027.03;4982628;28;2299;-84
2023/03/02 03:23:48;;;;;;;;;;;;;;;4.82;72.50;102022.50;4978745;28;1324;-84
2023/03/02 03:26:15;;;;;;;;;;;;;;;4.79;72.65;102012.97;4982090;28;2344;-85
2023/03/02 03:28:41;;;;;;;;;;;;;;;4.80;72.63;102019.19;4982346;28;1425;-85
2023/03/02 03:31:08;;;;;;;;;;;;;;;4.79;72.69;102023.66;4982910;28;1442;-85
2023/03/02 03:33:34;;;;;;;;;;;;;;;4.76;72.78;102013.25;4981268;28;1365;-83
2023/03/02 03:36:01;;;;;;;;;;;;;;;4.73;72.58;102002.88;4982823;28;2341;-85
2023/03/02 03:38:27;;;;;;;;;;;;;;;4.72;72.90;102002.03;4979997;28;2832;-85
2023/03/02 03:40:54;;;;;;;;;;;;;;;4.77;72.62;102001.63;4979295;28;2165;-83
2023/03/02 03:43:21;;;;;;;;;;;;;;;4.72;72.64;102004.72;4980766;28;2217;-85
2023/03/02 03:45:47;;;;;;;;;;;;;;;4.71;72.74;102007.53;4981660;28;2134;-85
2023/03/02 03:48:14;;;;;;;;;;;;;;;4.70;72.72;102005.84;4980561;28;2795;-83
2023/03/02 03:50:40;;;;;;;;;;;;;;;4.68;72.87;102002.50;4982627;28;2269;-85
2023/03/02 03:53:07;;;;;;;;;;;;;;;4.68;72.52;102000.66;4981835;28;2308;-84
2023/03/02 03:55:34;;;;;;;;;;;;;;;4.68;72.70;101999.81;4980278;28;2183;-84
2023/03/02 03:58:00;;;;;;;;;;;;;;;4.65;72.67;101998.28;4978517;28;2290;-84
2023/03/02 04:00:27;;;;;;;;;;;;;;;4.65;72.57;101995.63;4981212;28;2182;-84
2023/03/02 04:02:53;;;;;;;;;;;;;;;4.64;72.56;101987.75;4981797;28;1396;-85
2023/03/02 04:05:20;;;;;;;;;;;;;;;4.65;72.52;101982.28;4979270;28;2904;-84
2023/03/02 04:07:46;;;;;;;;;;;;;;;4.67;72.19;101976.78;4981565;28;2310;-85
2023/03/02 04:10:13;;;;;;;;;;;;;;;4.64;72.47;101971.72;4979917;28;2205;-84
2023/03/02 04:12:39;;;;;;;;;;;;;;;4.62;72.36;101977.22;4995538;28;2326;-84
2023/03/02 04:15:31;;;;;;;;;;;;;;;4.59;72.45;101972.19;4982543;28;2567;-84
2023/03/02 04:18:23;;;;;;;;;;;;;;;4.59;72.66;101961.50;4989307;28;2366;-84
2023/03/02 04:21:15;;;;;;;;;;;;;;;4.61;72.44;101959.50;4990950;28;2839;-84
2023/03/02 04:24:07;;;;;;;;;;;;;;;4.58;72.34;101954.47;4995759;28;2252;-84
2023/03/02 04:26:59;;;;;;;;;;;;;;;4.59;72.45;101945.50;4993169;28;2499;-85
2023/03/02 04:29:51;;;;;;;;;;;;;;;4.59;72.35;101949.97;4990625;28;2605;-84
2023/03/02 04:32:43;;;;;;;;;;;;;;;4.59;72.18;101949.97;4991224;28;2187;-85
2023/03/02 04:35:35;;;;;;;;;;;;;;;4.55;72.35;101946.75;4987675;28;5462;-83
2023/03/02 04:38:28;;;;;;;;;;;;;;;4.56;72.51;101945.78;4992275;28;4451;-83
2023/03/02 04:41:20;;;;;;;;;;;;;;;4.58;72.18;101941.13;4987366;28;2143;-85
2023/03/02 04:44:12;;;;;;;;;;;;;;;4.56;72.11;101935.13;4993668;28;1512;-85
2023/03/02 04:47:04;;;;;;;;;;;;;;;4.57;72.28;101934.13;4992214;28;1526;-84
2023/03/02 04:49:56;;;;;;;;;;;;;;;4.54;72.16;101924.56;4991317;28;2200;-85
2023/03/02 04:52:48;;;;;;;;;;;;;;;4.63;72.01;101924.69;4986306;28;2653;-85
2023/03/02 04:55:40;;;;;;;;;;;;;;;4.65;71.65;101931.56;4991884;28;2318;-85
2023/03/02 04:58:32;;;;;;;;;;;;;;;4.58;71.90;101925.13;4991476;28;1680;-84
2023/03/02 05:01:24;;;;;;;;;;;;;;;4.55;71.79;101915.56;4987471;28;1362;-84
2023/03/02 05:04:16;;;;;;;;;;;;;;;4.54;71.94;101907.72;4993546;28;2216;-84
2023/03/02 05:07:08;;;;;;;;;;;;;;;4.55;71.93;101898.72;4989964;28;2266;-85
2023/03/02 05:10:00;;;;;;;;;;;;;;;4.57;71.88;101909.28;4985154;28;1062;-84
2023/03/02 05:12:56;;;;;;;;;;;;;;;4.57;71.79;101899.44;4995910;28;947;-84
2023/03/02 05:15:49;;;;;;;;;;;;;;;4.55;71.67;101901.41;4983523;28;1317;-84
2023/03/02 05:18:41;;;;;;;;;;;;;;;4.59;71.54;101893.94;4996319;28;1105;-85
2023/03/02 05:21:32;;;;;;;;;;;;;;;4.57;71.60;101888.75;4990132;28;1990;-85
2023/03/02 05:24:24;;;;;;;;;;;;;;;4.57;71.64;101891.44;4987099;28;2390;-84
2023/03/02 05:27:16;;;;;;;;;;;;;;;4.56;71.57;101889.75;5012301;22;5068;-83
2023/03/02 05:30:08;;;;;;;;;;;;;;;4.55;71.42;101888.06;5021058;28;1588;-84
2023/03/02 05:33:00;;;;;;;;;;;;;;;4.51;71.79;101884.03;5014366;28;1470;-84
2023/03/02 05:35:52;;;;;;;;;;;;;;;4.54;71.64;101884.56;5019333;28;2506;-84
2023/03/02 05:38:44;;;;;;;;;;;;;;;4.53;71.63;101880.22;5019184;28;1067;-83
2023/03/02 05:41:36;;;;;;;;;;;;;;;4.51;71.61;101870.69;5019936;28;1894;-83
2023/03/02 05:44:28;;;;;;;;;;;;;;;4.53;71.39;101869.53;5020357;28;1959;-84
2023/03/02 05:47:20;;;;;;;;;;;;;;;4.49;71.61;101862.81;5006412;28;2008;-83
2023/03/02 05:50:12;;;;;;;;;;;;;;;4.50;71.42;101858.31;4990822;28;2368;-83
2023/03/02 05:53:04;;;;;;;;;;;;;;;4.50;71.50;101863.63;4988153;28;2445;-84
2023/03/02 05:55:56;;;;;;;;;;;;;;;4.54;71.33;101862.38;4989030;28;2221;-83
2023/03/02 05:58:48;;;;;;;;;;;;;;;4.52;71.35;101867.84;4991371;28;2276;-84
2023/03/02 06:01:40;;;;;;;;;;;;;;;4.58;71.11;101866.41;4990128;28;2312;-84
2023/03/02 06:04:32;;;;;;;;;;;;;;;4.53;71.33;101872.22;4989867;28;1435;-83
2023/03/02 06:07:26;;;;;;;;;;;;;;;4.62;70.94;101873.16;4992414;28;2053;-83
2023/03/02 06:10:17;;;;;;;;;;;;;;;4.54;71.17;101863.22;4994383;28;1487;-84
2023/03/02 06:13:09;;;;;;;;;;;;;;;4.56;71.39;101863.06;4991483;28;2008;-83
2023/03/02 06:16:01;;;;;;;;;;;;;;;4.53;71.10;101866.03;4988950;28;1499;-84
2023/03/02 06:18:53;;;;;;;;;;;;;;;4.50;71.30;101858.31;4992767;28;2230;-86
2023/03/02 06:21:45;;;;;;;;;;;;;;;4.56;70.93;101865.75;4993847;28;1415;-84
2023/03/02 06:24:37;;;;;;;;;;;;;;;4.55;71.02;101864.88;4988343;28;2641;-84
2023/03/02 06:27:29;;;;;;;;;;;;;;;4.51;71.15;101860.84;4988897;28;1281;-84
2023/03/02 06:30:21;;;;;;;;;;;;;;;4.48;71.09;101861.13;5012876;28;2370;-84
2023/03/02 06:33:13;;;;;;;;;;;;;;;4.49;71.03;101857.47;5002659;28;916;-84
2023/03/02 06:36:05;;;;;;;;;;;;;;;4.53;70.99;101855.38;4996604;28;2156;-83
2023/03/02 06:38:57;;;;;;;;;;;;;;;4.50;70.99;101856.50;5014659;28;983;-84
2023/03/02 06:41:49;;;;;;;;;;;;;;;4.49;71.01;101854.81;5008284;28;1421;-84
2023/03/02 06:44:41;;;;;;;;;;;;;;;4.54;70.78;101854.38;5012407;28;2335;-84
2023/03/02 06:47:33;;;;;;;;;;;;;;;4.52;70.86;101841.16;5010850;28;2219;-84
2023/03/02 06:50:25;;;;;;;;;;;;;;;4.56;70.82;101844.41;5003444;28;1566;-84
2023/03/02 06:53:19;;;;;;;;;;;;;;;4.52;70.96;101841.16;5007387;28;1370;-84
2023/03/02 06:56:10;;;;;;;;;;;;;;;4.51;71.12;101834.16;5007410;28;1459;-84
2023/03/02 06:59:02;;;;;;;;;;;;;;;4.49;70.99;101838.78;5002495;28;2258;-83
2023/03/02 07:01:54;;;;;;;;;;;;;;;4.50;71.00;101840.50;5002701;28;2721;-83
2023/03/02 07:04:46;;;;;;;;;;;;;;;4.49;70.97;101835.28;5002329;28;2192;-84
2023/03/02 07:07:38;;;;;;;;;;;;;;;4.51;70.94;101836.00;5007377;28;2236;-83
2023/03/02 07:10:30;;;;;;;;;;;;;;;4.52;70.89;101826.97;5003882;28;2922;-83
2023/03/02 07:13:22;;;;;;;;;;;;;;;4.55;70.79;101834.69;5001365;28;2713;-84
2023/03/02 07:16:14;;;;;;;;;;;;;;;4.53;70.62;101836.69;5002660;28;2144;-83
2023/03/02 07:19:06;;;;;;;;;;;;;;;4.53;70.60;101834.84;5009271;28;2076;-84
2023/03/02 07:21:58;;;;;;;;;;;;;;;4.52;70.69;101825.16;5013512;28;2416;-84
2023/03/02 07:24:50;;;;;;;;;;;;;;;4.50;70.80;101826.28;5011344;28;2310;-84
2023/03/02 07:27:42;;;;;;;;;;;;;;;4.50;70.72;101824.47;5011748;28;5055;-84
2023/03/02 07:30:34;;;;;;;;;;;;;;;4.56;70.58;101823.06;5004216;28;4406;-83
2023/03/02 07:33:26;;;;;;;;;;;;;;;4.50;70.74;101824.47;5007466;28;2085;-83
2023/03/02 07:36:18;;;;;;;;;;;;;;;4.55;70.63;101814.19;5012576;28;2328;-83
2023/03/02 07:39:10;;;;;;;;;;;;;;;4.55;70.51;101805.34;5006605;28;2007;-84
2023/03/02 07:42:03;;;;;;;;;;;;;;;4.51;70.61;101796.81;5004550;28;1689;-84
2023/03/02 07:44:54;;;;;;;;;;;;;;;4.50;70.70;101781.78;5001830;28;2114;-83
2023/03/02 07:47:46;;;;;;;;;;;;;;;4.54;70.53;101785.84;5002580;28;2521;-84
2023/03/02 07:50:38;;;;;;;;;;;;;;;4.54;70.40;101772.50;4996494;28;2154;-82
2023/03/02 07:53:30;;;;;;;;;;;;;;;4.62;70.14;101763.75;4997193;28;2863;-81
2023/03/02 07:56:22;;;;;;;;;;;;;;;4.53;70.49;101760.16;5006100;28;3030;-82
2023/03/02 07:59:14;;;;;;;;;;;;;;;4.54;70.54;101759.16;5016076;28;1816;-82
2023/03/02 08:02:06;;;;;;;;;;;;;;;4.58;70.41;101756.19;5011560;28;2310;-82
2023/03/02 08:04:58;;;;;;;;;;;;;;;4.58;70.79;101751.66;5010425;28;1474;-82
2023/03/02 08:07:50;;;;;;;;;;;;;;;4.57;70.49;101760.69;5010179;28;2307;-82
2023/03/02 08:10:42;;;;;;;;;;;;;;;4.60;70.44;101767.56;5006928;28;2229;-81
2023/03/02 08:13:34;;;;;;;;;;;;;;;4.60;70.34;101770.22;5014585;28;2138;-81
2023/03/02 08:16:26;;;;;;;;;;;;;;;4.59;70.30;101764.03;5015034;28;2280;-82
2023/03/02 08:19:18;;;;;;;;;;;;;;;4.57;70.42;101765.19;5014617;28;2153;-80
2023/03/02 08:22:10;;;;;;;;;;;;;;;4.64;70.28;101750.22;5008462;28;2217;-82
2023/03/02 08:25:02;;;;;;;;;;;;;;;4.66;70.13;101751.75;5014446;28;2161;-80
2023/03/02 08:27:53;;;;;;;;;;;;;;;4.65;70.17;101752.75;5011710;28;3046;-81
2023/03/02 08:30:45;;;;;;;;;;;;;;;4.68;69.92;101751.63;4995346;28;2826;-80
2023/03/02 08:33:37;;;;;;;;;;;;;;;4.68;70.02;101749.78;4997902;28;2741;-81
2023/03/02 08:36:29;;;;;;;;;;;;;;;4.76;69.71;101746.34;4998573;28;2508;-82
2023/03/02 08:39:22;;;;;;;;;;;;;;;4.70;69.91;101741.63;5008371;28;2354;-81
2023/03/02 08:42:15;;;;;;;;;;;;;;;4.68;70.08;101741.78;5006848;28;1066;-81
2023/03/02 08:45:06;;;;;;;;;;;;;;;4.71;69.77;101733.47;5012042;28;2203;-82
2023/03/02 08:47:58;;;;;;;;;;;;;;;4.73;70.06;101720.78;5003225;28;2840;-82
2023/03/02 08:50:50;;;;;;;;;;;;;;;4.76;69.81;101716.97;5008732;28;2438;-81
2023/03/02 08:53:42;;;;;;;;;;;;;;;4.74;69.94;101721.66;5012491;28;3118;-81
2023/03/02 08:56:34;;;;;;;;;;;;;;;4.72;69.97;101713.78;5013692;28;935;-81
2023/03/02 08:59:26;;;;;;;;;;;;;;;4.81;69.71;101719.19;5013817;28;3091;-82
2023/03/02 09:02:18;;;;;;;;;;;;;;;4.83;69.72;101715.41;5014439;28;2772;-82
2023/03/02 09:05:11;;;;;;;;;;;;;;;4.75;69.99;101718.81;5008676;28;1127;-83
2023/03/02 09:08:02;;;;;;;;;;;;;;;4.85;69.87;101712.56;5012417;28;1158;-82
2023/03/02 09:10:54;;;;;;;;;;;;;;;4.80;69.93;101694.34;5006559;28;1010;-82
2023/03/02 09:13:46;;;;;;;;;;;;;;;4.76;70.03;101692.97;5008849;28;1106;-82
2023/03/02 09:16:38;;;;;;;;;;;;;;;4.79;70.06;101692.66;5003009;28;991;-82
2023/03/02 09:19:30;;;;;;;;;;;;;;;4.86;69.94;101699.06;5006248;28;1603;-83
2023/03/02 09:22:22;;;;;;;;;;;;;;;4.83;69.96;101693.22;5010323;28;1544;-83
2023/03/02 09:25:14;;;;;;;;;;;;;;;4.95;69.62;101686.63;5009133;28;2386;-84
2023/03/02 09:28:06;;;;;;;;;;;;;;;4.86;70.06;101696.41;5008340;28;2393;-83
2023/03/02 09:30:58;;;;;;;;;;;;;;;4.90;69.77;101697.75;5004431;28;2733;-84
2023/03/02 09:33:50;;;;;;;;;;;;;;;4.90;70.02;101696.91;5012636;28;1284;-85
2023/03/02 09:36:42;;;;;;;;;;;;;;;4.93;69.80;101691.28;5012131;28;2375;-85
2023/03/02 09:39:34;;;;;;;;;;;;;;;4.95;69.78;101681.28;5014507;28;970;-83
2023/03/02 09:42:27;;;;;;;;;;;;;;;4.93;69.86;101680.59;5001297;28;1848;-83
2023/03/02 09:45:18;;;;;;;;;;;;;;;4.93;70.10;101684.09;5009635;28;2340;-83
2023/03/02 09:48:10;;;;;;;;;;;;;;;5.00;69.79;101684.34;5009615;28;932;-83
2023/03/02 09:51:02;;;;;;;;;;;;;;;5.04;69.86;101679.50;5009060;28;899;-81
2023/03/02 09:53:54;;;;;;;;;;;;;;;4.96;69.96;101662.41;5003756;28;2800;-82
2023/03/02 09:56:46;;;;;;;;;;;;;;;5.00;70.06;101660.31;5012859;28;943;-83
2023/03/02 09:59:38;;;;;;;;;;;;;;;5.06;69.99;101662.34;5013694;28;5582;-83
2023/03/02 10:02:30;;;;;;;;;;;;;;;5.10;69.87;101660.19;5009985;28;2218;-84
2023/03/02 10:05:22;;;;;;;;;;;;;;;5.11;69.78;101651.19;5003773;28;936;-83
2023/03/02 10:08:14;;;;;;;;;;;;;;;5.14;69.76;101645.53;5018357;28;2336;-84
2023/03/02 10:11:06;;;;;;;;;;;;;;;5.11;69.87;101638.66;4998165;28;2749;-84
2023/03/02 10:13:58;;;;;;;;;;;;;;;5.15;69.90;101653.38;4999401;28;2749;-83
2023/03/02 10:16:50;;;;;;;;;;;;;;;5.17;69.85;101661.22;5001579;28;2236;-82
2023/03/02 10:19:42;;;;;;;;;;;;;;;5.20;69.95;101683.13;5012221;28;2627;-84
2023/03/02 10:22:33;;;;;;;;;;;;;;;5.21;69.80;101697.34;5004647;28;2276;-84
2023/03/02 10:25:25;;;;;;;;;;;;;;;5.23;69.93;101701.53;5061718;22;4600;-84
2023/03/02 10:28:17;;;;;;;;;;;;;;;5.29;69.76;101685.84;5055735;28;848;-82
2023/03/02 10:31:09;;;;;;;;;;;;;;;5.29;69.88;101672.47;5053728;28;2539;-83
2023/03/02 10:34:01;;;;;;;;;;;;;;;5.31;69.90;101676.69;5046757;28;1548;-82
2023/03/02 10:36:53;;;;;;;;;;;;;;;5.33;69.96;101673.88;5030647;28;2371;-83
2023/03/02 10:39:45;;;;;;;;;;;;;;;5.40;69.66;101666.88;5027727;28;2431;-83
2023/03/02 10:42:39;;;;;;;;;;;;;;;5.42;69.74;101668.41;5028254;28;1404;-84
2023/03/02 10:45:30;;;;;;;;;;;;;;;5.43;69.79;101656.72;5031437;28;2316;-83
2023/03/02 10:48:23;;;;;;;;;;;;;;;5.44;69.82;101649.53;5025390;28;1149;-85
2023/03/02 10:51:14;;;;;;;;;;;;;;;5.40;70.06;101634.81;5031387;28;1528;-83
2023/03/02 10:54:05;;;;;;;;;;;;;;;5.45;69.76;101608.47;5030318;28;2463;-84
2023/03/02 10:56:57;;;;;;;;;;;;;;;5.43;70.10;101597.09;5023824;28;1534;-83
2023/03/02 10:59:49;;;;;;;;;;;;;;;5.51;69.92;101590.97;5033883;28;1549;-83
2023/03/02 11:02:41;;;;;;;;;;;;;;;5.49;69.93;101596.44;5033243;28;2230;-83
2023/03/02 11:05:33;;;;;;;;;;;;;;;5.52;69.86;101585.44;5033983;28;1223;-82
2023/03/02 11:08:25;;;;;;;;;;;;;;;5.55;70.10;101581.59;5029264;28;2291;-81
2023/03/02 11:11:17;;;;;;;;;;;;;;;5.57;69.97;101569.75;5027839;28;2348;-82
2023/03/02 11:14:09;;;;;;;;;;;;;;;5.60;70.10;101573.94;5025927;28;1086;-82
2023/03/02 11:17:01;;;;;;;;;;;;;;;5.63;70.09;101574.47;5026161;28;1047;-82
2023/03/02 11:19:53;;;;;;;;;;;;;;;5.63;70.31;101587.00;5032413;28;2277;-83
2023/03/02 11:22:45;;;;;;;;;;;;;;;5.64;70.23;101589.47;5027588;28;2328;-82
2023/03/02 11:25:37;;;;;;;;;;;;;;;5.66;69.95;101598.19;5028247;28;1307;-82
2023/03/02 11:28:29;;;;;;;;;;;;;;;5.66;70.17;101590.16;5004011;28;2272;-82
2023/03/02 11:30:56;;;;;;;;;;;;;;;5.68;70.19;101580.16;5013149;28;1522;-83
2023/03/02 11:33:22;;;;;;;;;;;;;;;5.69;70.29;101575.66;5014938;28;1079;-82
2023/03/02 11:36:09;;;;;;;;;;;;;;;5.73;70.00;101579.66;5023366;28;1188;-82
2023/03/02 11:38:55;;;;;;;;;;;;;;;5.73;70.14;101585.00;5008892;28;2352;-82
2023/03/02 11:41:42;;;;;;;;;;;;;;;5.78;70.33;101574.66;5013617;28;1146;-82
2023/03/02 11:44:34;;;;;;;;;;;;;;;5.83;70.40;101560.81;5011013;28;2042;-82
2023/03/02 11:47:01;;;;;;;;;;;;;;;5.82;70.18;101556.44;5004523;28;2290;-82
2023/03/02 11:49:27;;;;;;;;;;;;;;;5.83;70.13;101544.78;5004965;28;2692;-81
2023/03/02 11:51:54;;;;;;;;;;;;;;;5.85;70.17;101537.41;5016805;28;1073;-81
2023/03/02 11:54:20;;;;;;;;;;;;;;;5.84;70.54;101536.56;5000107;28;2730;-81
2023/03/02 11:56:47;;;;;;;;;;;;;;;5.85;70.25;101538.28;5000376;28;2200;-80
2023/03/02 11:59:14;;;;;;;;;;;;;;;5.88;70.19;101537.06;5006052;28;2497;-81
2023/03/02 12:01:40;;;;;;;;;;;;;;;5.89;70.35;101541.44;5015104;28;1400;-81
2023/03/02 12:04:07;;;;;;;;;;;;;;;5.91;70.47;101526.91;5013866;28;2114;-81
2023/03/02 12:06:33;;;;;;;;;;;;;;;5.90;70.45;101511.03;5007255;28;1910;-81
2023/03/02 12:09:00;;;;;;;;;;;;;;;5.96;70.27;101502.38;5015242;28;2752;-81
2023/03/02 12:11:27;;;;;;;;;;;;;;;5.98;70.42;101511.06;5003053;28;2818;-81
2023/03/02 12:13:53;;;;;;;;;;;;;;;5.96;70.43;101499.69;5007711;28;1279;-81
2023/03/02 12:16:20;;;;;;;;;;;;;;;5.98;70.42;101497.69;5015956;28;1388;-80
2023/03/02 12:18:46;;;;;;;;;;;;;;;5.98;70.73;101478.97;5007877;28;2288;-80
2023/03/02 12:21:13;;;;;;;;;;;;;;;5.96;70.50;101435.50;5009266;28;1317;-81
2023/03/02 12:23:39;;;;;;;;;;;;;;;6.00;70.67;101430.66;5007533;28;2658;-81
2023/03/02 12:26:06;;;;;;;;;;;;;;;6.02;70.88;101434.84;5003393;28;2623;-81
2023/03/02 12:28:32;;;;;;;;;;;;;;;6.06;70.46;101446.88;4991081;28;4321;-81
2023/03/02 12:30:59;;;;;;;;;;;;;;;6.08;70.67;101450.22;5004566;28;2226;-82
2023/03/02 12:33:25;;;;;;;;;;;;;;;6.08;70.46;101454.72;5006163;28;4214;-82
2023/03/02 12:35:56;;;;;;;;;;;;;;;6.13;70.64;101450.53;5007187;28;2107;-82
2023/03/02 12:38:22;;;;;;;;;;;;;;;6.12;70.45;101445.38;5012153;28;2567;-81
2023/03/02 12:40:49;;;;;;;;;;;;;;;6.15;70.72;101461.09;5015020;28;1430;-82
2023/03/02 12:43:16;;;;;;;;;;;;;;;6.17;70.51;101468.94;5007992;28;5162;-82
2023/03/02 12:45:42;;;;;;;;;;;;;;;6.15;70.83;101474.47;5012360;28;2101;-82
2023/03/02 12:48:09;;;;;;;;;;;;;;;6.16;70.65;101475.28;5011007;28;2360;-82
2023/03/02 12:50:35;;;;;;;;;;;;;;;6.19;70.86;101454.38;5003474;28;4797;-81
2023/03/02 12:53:02;;;;;;;;;;;;;;;6.20;71.03;101444.53;5008715;28;2734;-81
2023/03/02 12:55:28;;;;;;;;;;;;;;;6.20;70.84;101436.50;5005587;28;2442;-80
2023/03/02 12:57:55;;;;;;;;;;;;;;;6.22;71.02;101429.97;5004696;28;2379;-82
2023/03/02 13:00:21;;;;;;;;;;;;;;;6.24;70.71;101432.50;5009146;28;2802;-81
2023/03/02 13:02:48;;;;;;;;;;;;;;;6.25;70.83;101440.34;4999615;28;2465;-82
2023/03/02 13:05:15;;;;;;;;;;;;;;;6.25;71.07;101437.66;5004303;28;2514;-82
2023/03/02 13:07:41;;;;;;;;;;;;;;;6.27;70.88;101434.81;4996592;28;2809;-82
2023/03/02 13:10:08;;;;;;;;;;;;;;;6.28;70.92;101423.94;5002496;28;2337;-82
2023/03/02 13:12:37;;;;;;;;;;;;;;;6.33;71.18;101405.53;4995703;28;2895;-82
2023/03/02 13:15:04;;;;;;;;;;;;;;;6.33;71.23;101407.38;4994603;28;2674;-82
2023/03/02 13:17:30;;;;;;;;;;;;;;;6.32;71.31;101398.53;5002432;28;2705;-81
2023/03/02 13:19:57;;;;;;;;;;;;;;;6.35;71.18;101387.50;5003416;28;1563;-81
2023/03/02 13:22:24;;;;;;;;;;;;;;;6.37;71.27;101382.78;5005009;28;2541;-81
2023/03/02 13:24:50;;;;;;;;;;;;;;;6.41;71.21;101379.75;5006162;28;2546;-82
2023/03/02 13:27:17;;;;;;;;;;;;;;;6.41;71.22;101374.41;5004670;28;2073;-81
2023/03/02 13:29:44;;;;;;;;;;;;;;;6.40;71.23;101370.06;5007696;28;1485;-81
2023/03/02 13:32:11;;;;;;;;;;;;;;;6.43;71.38;101364.38;5005293;28;2164;-83
2023/03/02 13:34:37;;;;;;;;;;;;;;;6.48;71.02;101362.03;5005341;28;986;-82
2023/03/02 13:37:04;;;;;;;;;;;;;;;6.50;71.24;101358.16;5017612;28;2882;-82
2023/03/02 13:39:30;;;;;;;;;;;;;;;6.47;71.11;101347.81;5006232;28;2409;-83
2023/03/02 13:41:57;;;;;;;;;;;;;;;6.48;71.15;101352.16;5005686;28;1382;-82
2023/03/02 13:44:24;;;;;;;;;;;;;;;6.48;71.52;101346.78;5001581;28;2304;-82
2023/03/02 13:46:50;;;;;;;;;;;;;;;6.54;71.08;101347.94;5005678;28;2295;-82
2023/03/02 13:49:17;;;;;;;;;;;;;;;6.54;71.42;101332.72;5003564;28;2411;-82
2023/03/02 13:51:43;;;;;;;;;;;;;;;6.53;71.29;101319.50;5021483;28;2644;-82
2023/03/02 13:54:10;;;;;;;;;;;;;;;6.54;71.15;101321.19;5005596;28;2083;-83
2023/03/02 13:56:37;;;;;;;;;;;;;;;6.56;71.55;101314.66;5002216;28;1325;-83
2023/03/02 13:59:03;;;;;;;;;;;;;;;6.58;71.63;101311.78;5003920;28;2514;-81